Terminal Aerodrome Forecast
Issued by NWS

Home | Current Version | Previous Version | Text Only | Print | Product List | Glossary On
Versions: 1 2 3 4 5 6 7 8 9 10 11 12 13 14 15 16 17 18 19 20 21 22 23 24 25 26 27 28
775
FTUS45 KBOU 171720
TAFBJC
TAF
KBJC 171720Z 1718/1818 VRB05KT P6SM SKC
     FM180100 26007KT P6SM FEW200
     FM180900 27010G16KT P6SM FEW200
     FM181600 27005KT P6SM FEW200=

USA.gov is the U.S. government's official web portal to all federal, state and local government web resources and services.